Time;durP1;ratioP1;P1;durP2;ratioP2;P2;SDS_P1;SDS_P2;PMS_P1;PMS_P2;Temp;Humidity;BMP_temperature;BMP_pressure;BME280_temperature;BME280_humidity;BME280_pressure;Samples;Min_cycle;Max_cycle;Signal;HPM_P1;HPM_P2
2021/05/28 05:19:18;;;;;;;;;4.00;3.00;;;;;19.06;50.89;102069.75;5113607;27;1313609;-82
2021/05/28 05:21:44;;;;;;;;;3.25;3.25;;;;;19.19;50.40;102070.03;5115541;27;45530;-81
2021/05/28 05:24:09;;;;;;;;;3.75;3.75;;;;;19.33;50.08;102080.88;5147524;27;54979;-81
2021/05/28 05:26:35;;;;;;;;;2.75;2.75;;;;;19.48;49.96;102080.22;5123318;27;45888;-81
2021/05/28 05:29:00;;;;;;;;;3.75;2.50;;;;;19.63;49.47;102081.25;5146244;27;45324;-90
2021/05/28 05:31:26;;;;;;;;;3.00;3.00;;;;;19.78;49.61;102080.47;5118438;27;44741;-82
2021/05/28 05:33:51;;;;;;;;;3.50;3.50;;;;;19.95;49.34;102080.56;5111397;27;53606;-81
2021/05/28 05:36:16;;;;;;;;;2.00;2.00;;;;;20.07;48.71;102082.59;5140862;27;59591;-83
2021/05/28 05:38:42;;;;;;;;;2.00;2.00;;;;;20.18;48.47;102076.69;5119985;27;57648;-84
2021/05/28 05:41:07;;;;;;;;;19.50;16.00;;;;;20.04;46.91;102077.41;5121067;27;50218;-86
2021/05/28 05:43:33;;;;;;;;;22.00;17.50;;;;;19.27;47.32;102077.66;5087840;27;44582;-87
2021/05/28 05:46:01;;;;;;;;;22.00;21.00;;;;;18.44;48.84;102079.69;5085167;27;46476;-89
2021/05/28 05:48:26;;;;;;;;;19.75;17.00;;;;;17.68;49.27;102081.97;5106528;27;45437;-89
2021/05/28 05:50:52;;;;;;;;;18.50;17.75;;;;;17.06;50.79;102080.84;5104312;27;45529;-89
2021/05/28 05:53:17;;;;;;;;;22.75;18.25;;;;;16.58;52.31;102095.94;5097904;27;48429;-88
2021/05/28 05:55:43;;;;;;;;;20.75;14.50;;;;;16.19;53.03;102091.13;5098950;27;45427;-88
2021/05/28 05:58:08;;;;;;;;;20.75;17.75;;;;;15.84;53.74;102086.06;5116406;27;52385;-88
2021/05/28 06:00:33;;;;;;;;;18.50;17.25;;;;;15.61;54.93;102089.47;5078546;27;55787;-88
2021/05/28 06:02:59;;;;;;;;;21.00;18.00;;;;;15.41;54.96;102072.44;5107000;27;50703;-87
2021/05/28 06:05:24;;;;;;;;;22.75;20.25;;;;;15.26;55.08;102084.41;5078856;27;46234;-87
2021/05/28 06:07:50;;;;;;;;;18.25;16.75;;;;;15.04;58.91;102072.69;5095559;27;45719;-80
2021/05/28 06:10:15;;;;;;;;;4.00;3.00;;;;;15.22;58.20;102077.47;5110196;27;54649;-77
2021/05/28 06:12:41;;;;;;;;;4.25;3.75;;;;;15.79;57.64;102084.47;5097884;27;45259;-78
2021/05/28 06:15:06;;;;;;;;;3.00;3.00;;;;;16.33;56.95;102087.09;5116322;27;60169;-77
2021/05/28 06:17:32;;;;;;;;;3.00;3.00;;;;;16.84;55.78;102089.63;5097327;27;45857;-78
2021/05/28 06:19:57;;;;;;;;;2.75;2.75;;;;;17.31;55.10;102087.88;5063884;27;45199;-78
2021/05/28 06:50:14;;;;;;;;;7.25;7.00;;;;;19.85;49.40;102080.16;5130247;27;45221;-73
2021/05/28 06:52:40;;;;;;;;;5.50;5.00;;;;;19.96;48.95;102082.25;5125517;27;45564;-68
2021/05/28 06:55:06;;;;;;;;;2.75;2.75;;;;;20.05;48.56;102089.78;5119126;27;45450;-69
2021/05/28 06:57:31;;;;;;;;;2.50;2.50;;;;;20.15;48.47;102089.38;5105296;27;45237;-69
2021/05/28 06:59:59;;;;;;;;;2.25;2.25;;;;;20.21;47.72;102087.22;5116459;27;45322;-69
2021/05/28 07:02:24;;;;;;;;;4.50;3.00;;;;;20.28;48.02;102086.88;5117831;27;45278;-70
2021/05/28 07:04:49;;;;;;;;;3.00;3.00;;;;;20.35;47.77;102085.63;5100164;27;45405;-69
2021/05/28 07:07:15;;;;;;;;;3.00;3.00;;;;;20.39;47.56;102067.63;5124944;27;45307;-69
2021/05/28 07:09:40;;;;;;;;;2.25;2.25;;;;;20.45;47.25;102078.84;5115853;27;55835;-68
2021/05/28 07:12:06;;;;;;;;;3.00;2.75;;;;;20.50;47.51;102078.59;5116336;27;58543;-69
2021/05/28 07:14:31;;;;;;;;;3.25;3.25;;;;;20.54;47.35;102085.50;5117596;27;45279;-69
2021/05/28 07:16:57;;;;;;;;;2.25;2.25;;;;;20.58;47.12;102088.84;5132808;27;46203;-69
2021/05/28 07:19:22;;;;;;;;;4.00;3.00;;;;;20.60;47.06;102089.63;5116039;27;45307;-69
2021/05/28 07:21:47;;;;;;;;;4.00;3.00;;;;;20.63;46.82;102089.47;5089657;27;60835;-69
2021/05/28 07:24:13;;;;;;;;;3.25;2.75;;;;;20.64;46.52;102077.00;5098470;27;57276;-69
2021/05/28 07:26:38;;;;;;;;;4.00;3.00;;;;;20.67;46.63;102074.13;5105007;27;56542;-69
2021/05/28 07:29:04;;;;;;;;;3.00;3.00;;;;;20.68;46.36;102076.72;5098250;27;47910;-69
2021/05/28 07:31:29;;;;;;;;;2.00;2.00;;;;;20.70;46.31;102068.63;5123812;27;45325;-69
2021/05/28 07:33:55;;;;;;;;;2.75;2.75;;;;;20.71;46.51;102075.69;5121877;27;45469;-69
2021/05/28 07:36:22;;;;;;;;;3.00;3.00;;;;;20.72;46.23;102074.75;5127648;27;45492;-69
2021/05/28 07:38:47;;;;;;;;;4.00;2.00;;;;;20.74;46.15;102080.84;5116390;27;46959;-69
2021/05/28 07:41:13;;;;;;;;;3.00;3.00;;;;;20.74;45.97;102080.03;5116632;27;60730;-69
2021/05/28 07:43:38;;;;;;;;;4.50;4.00;;;;;20.75;45.88;102076.38;5114996;27;56057;-69
2021/05/28 07:46:04;;;;;;;;;3.50;3.00;;;;;20.76;45.75;102072.78;5115941;27;45280;-69
2021/05/28 07:48:29;;;;;;;;;4.25;3.25;;;;;20.76;45.92;102057.63;5115306;27;55613;-69
2021/05/28 07:50:58;;;;;;;;;3.25;3.25;;;;;20.78;46.10;102057.53;5114890;27;56591;-70
2021/05/28 07:53:25;;;;;;;;;3.50;3.50;;;;;20.79;46.54;102057.41;5115471;27;45453;-69
2021/05/28 07:55:51;;;;;;;;;3.00;3.00;;;;;20.81;46.13;102057.34;5116720;27;45694;-69
2021/05/28 07:58:16;;;;;;;;;5.50;4.50;;;;;20.82;46.22;102055.56;5114928;27;46545;-69
2021/05/28 08:00:41;;;;;;;;;4.00;3.00;;;;;20.82;46.31;102053.72;5105294;27;53374;-69
2021/05/28 08:03:07;;;;;;;;;3.00;3.00;;;;;20.84;46.44;102053.66;5103033;27;45248;-69
2021/05/28 08:05:32;;;;;;;;;2.50;2.50;;;;;20.85;46.34;102050.88;5102962;27;47212;-70
2021/05/28 08:07:58;;;;;;;;;3.00;3.00;;;;;20.82;46.31;102048.38;5116123;27;45428;-70
2021/05/28 08:10:23;;;;;;;;;2.00;2.00;;;;;20.84;46.38;102049.16;5084153;27;45356;-69
2021/05/28 08:12:49;;;;;;;;;4.00;4.00;;;;;20.85;46.49;102050.00;5099600;27;45465;-73
